sensor_id;sensor_type;location;lat;lon;timestamp;pressure;altitude;pressure_sealevel;temperature;humidity
22481;BME280;11407;56.964;-2.212;2022-10-16T00:01:19;98818.69;;;18.46;46.94
22481;BME280;11407;56.964;-2.212;2022-10-16T00:03:46;98809.91;;;18.39;46.71
22481;BME280;11407;56.964;-2.212;2022-10-16T00:06:13;98814.09;;;18.59;46.38
22481;BME280;11407;56.964;-2.212;2022-10-16T00:08:39;98820.66;;;18.63;46.07
22481;BME280;11407;56.964;-2.212;2022-10-16T00:13:39;98819.41;;;18.66;46.31
22481;BME280;11407;56.964;-2.212;2022-10-16T00:16:05;98832.63;;;18.54;46.27
22481;BME280;11407;56.964;-2.212;2022-10-16T00:18:31;98825.63;;;18.53;46.35
22481;BME280;11407;56.964;-2.212;2022-10-16T00:21:09;98822.66;;;18.74;45.88
22481;BME280;11407;56.964;-2.212;2022-10-16T00:23:35;98826.38;;;18.67;46.42
22481;BME280;11407;56.964;-2.212;2022-10-16T00:26:04;98832.63;;;18.54;46.27
22481;BME280;11407;56.964;-2.212;2022-10-16T00:28:30;98827.50;;;18.46;46.48
22481;BME280;11407;56.964;-2.212;2022-10-16T00:30:56;98833.25;;;18.50;46.47
22481;BME280;11407;56.964;-2.212;2022-10-16T00:33:22;98833.03;;;18.51;46.35
22481;BME280;11407;56.964;-2.212;2022-10-16T00:35:48;98830.72;;;18.61;45.87
22481;BME280;11407;56.964;-2.212;2022-10-16T00:38:14;98838.56;;;18.56;46.38
22481;BME280;11407;56.964;-2.212;2022-10-16T00:40:39;98827.50;;;18.46;46.33
22481;BME280;11407;56.964;-2.212;2022-10-16T00:46:24;98823.25;;;18.39;46.18
22481;BME280;11407;56.964;-2.212;2022-10-16T00:51:31;98815.44;;;18.37;46.17
22481;BME280;11407;56.964;-2.212;2022-10-16T00:53:57;98805.41;;;18.33;46.08
22481;BME280;11407;56.964;-2.212;2022-10-16T00:56:23;98811.16;;;18.30;46.19
22481;BME280;11407;56.964;-2.212;2022-10-16T00:58:48;98808.53;;;18.23;46.41
22481;BME280;11407;56.964;-2.212;2022-10-16T01:01:14;98802.97;;;18.31;46.15
22481;BME280;11407;56.964;-2.212;2022-10-16T01:03:39;98800.31;;;18.31;46.09
22481;BME280;11407;56.964;-2.212;2022-10-16T01:06:36;98797.34;;;18.46;45.55
22481;BME280;11407;56.964;-2.212;2022-10-16T01:09:16;98797.41;;;18.33;46.03
22481;BME280;11407;56.964;-2.212;2022-10-16T01:12:15;98798.06;;;18.28;46.14
22481;BME280;11407;56.964;-2.212;2022-10-16T01:20:43;98796.81;;;18.31;46.22
22481;BME280;11407;56.964;-2.212;2022-10-16T01:28:11;98801.16;;;18.12;46.46
22481;BME280;11407;56.964;-2.212;2022-10-16T01:30:40;98791.34;;;18.07;46.68
22481;BME280;11407;56.964;-2.212;2022-10-16T01:33:18;98799.56;;;18.05;46.87
22481;BME280;11407;56.964;-2.212;2022-10-16T01:35:53;98789.69;;;18.12;46.73
22481;BME280;11407;56.964;-2.212;2022-10-16T01:38:25;98786.41;;;18.10;46.54
22481;BME280;11407;56.964;-2.212;2022-10-16T01:41:04;98792.31;;;18.18;46.13
22481;BME280;11407;56.964;-2.212;2022-10-16T01:44:02;98778.41;;;18.10;46.40
22481;BME280;11407;56.964;-2.212;2022-10-16T01:46:30;98774.31;;;18.08;46.22
22481;BME280;11407;56.964;-2.212;2022-10-16T01:48:57;98778.22;;;18.05;46.40
22481;BME280;11407;56.964;-2.212;2022-10-16T01:51:24;98789.72;;;17.99;46.43
22481;BME280;11407;56.964;-2.212;2022-10-16T01:53:54;98793.38;;;18.11;46.55
22481;BME280;11407;56.964;-2.212;2022-10-16T01:56:21;98789.66;;;18.18;46.65
22481;BME280;11407;56.964;-2.212;2022-10-16T01:58:55;98789.66;;;18.18;46.43
22481;BME280;11407;56.964;-2.212;2022-10-16T02:01:23;98814.47;;;18.19;46.58
22481;BME280;11407;56.964;-2.212;2022-10-16T02:03:53;98813.84;;;18.17;46.65
22481;BME280;11407;56.964;-2.212;2022-10-16T02:06:19;98811.84;;;18.00;46.97
22481;BME280;11407;56.964;-2.212;2022-10-16T02:08:46;98820.06;;;18.05;46.72
22481;BME280;11407;56.964;-2.212;2022-10-16T02:11:11;98822.09;;;18.09;46.70
22481;BME280;11407;56.964;-2.212;2022-10-16T02:14:04;98840.72;;;18.28;46.32
22481;BME280;11407;56.964;-2.212;2022-10-16T02:16:36;98843.38;;;18.28;46.51
22481;BME280;11407;56.964;-2.212;2022-10-16T02:19:02;98839.72;;;18.16;46.38
22481;BME280;11407;56.964;-2.212;2022-10-16T02:21:54;98848.75;;;18.22;46.75
22481;BME280;11407;56.964;-2.212;2022-10-16T02:29:16;98843.00;;;18.12;46.79
22481;BME280;11407;56.964;-2.212;2022-10-16T02:31:46;98855.75;;;18.04;46.94
22481;BME280;11407;56.964;-2.212;2022-10-16T02:34:13;98865.00;;;17.88;47.10
22481;BME280;11407;56.964;-2.212;2022-10-16T02:36:40;98875.03;;;17.93;47.01
22481;BME280;11407;56.964;-2.212;2022-10-16T02:39:08;98879.34;;;17.87;47.03
22481;BME280;11407;56.964;-2.212;2022-10-16T02:41:34;98883.44;;;17.83;46.93
22481;BME280;11407;56.964;-2.212;2022-10-16T02:43:59;98885.72;;;17.73;46.90
22481;BME280;11407;56.964;-2.212;2022-10-16T02:46:25;98897.00;;;17.69;47.14
22481;BME280;11407;56.964;-2.212;2022-10-16T02:48:50;98907.44;;;17.77;46.96
22481;BME280;11407;56.964;-2.212;2022-10-16T02:51:16;98908.28;;;17.77;46.85
22481;BME280;11407;56.964;-2.212;2022-10-16T02:53:41;98904.38;;;17.67;46.86
22481;BME280;11407;56.964;-2.212;2022-10-16T02:56:06;98908.69;;;17.61;46.78
22481;BME280;11407;56.964;-2.212;2022-10-16T02:58:32;98916.50;;;17.63;46.77
22481;BME280;11407;56.964;-2.212;2022-10-16T03:00:57;98924.88;;;17.66;46.57
22481;BME280;11407;56.964;-2.212;2022-10-16T03:03:23;98938.81;;;17.62;46.54
22481;BME280;11407;56.964;-2.212;2022-10-16T03:05:48;98936.56;;;17.59;46.33
22481;BME280;11407;56.964;-2.212;2022-10-16T03:08:14;98945.94;;;17.42;46.78
22481;BME280;11407;56.964;-2.212;2022-10-16T03:10:39;98951.09;;;17.37;46.74
22481;BME280;11407;56.964;-2.212;2022-10-16T03:13:05;98954.09;;;17.27;46.88
22481;BME280;11407;56.964;-2.212;2022-10-16T03:15:30;98961.28;;;17.27;46.89
22481;BME280;11407;56.964;-2.212;2022-10-16T03:17:59;98965.56;;;17.21;46.76
22481;BME280;11407;56.964;-2.212;2022-10-16T03:20:25;98975.56;;;17.13;46.90
22481;BME280;11407;56.964;-2.212;2022-10-16T03:22:50;98965.91;;;17.06;46.76
22481;BME280;11407;56.964;-2.212;2022-10-16T03:25:16;98971.44;;;16.98;47.01
22481;BME280;11407;56.964;-2.212;2022-10-16T03:27:41;98966.25;;;16.83;47.21
22481;BME280;11407;56.964;-2.212;2022-10-16T03:30:07;98979.78;;;16.88;46.91
22481;BME280;11407;56.964;-2.212;2022-10-16T03:32:33;98986.94;;;16.88;46.47
22481;BME280;11407;56.964;-2.212;2022-10-16T03:34:58;98995.28;;;16.78;46.56
22481;BME280;11407;56.964;-2.212;2022-10-16T03:37:24;98997.06;;;16.65;46.67
22481;BME280;11407;56.964;-2.212;2022-10-16T03:39:49;99010.72;;;16.55;46.82
22481;BME280;11407;56.964;-2.212;2022-10-16T03:42:15;99017.72;;;16.63;46.56
22481;BME280;11407;56.964;-2.212;2022-10-16T03:44:40;99025.72;;;16.35;47.02
22481;BME280;11407;56.964;-2.212;2022-10-16T03:47:05;99031.72;;;16.23;47.10
22481;BME280;11407;56.964;-2.212;2022-10-16T03:49:31;99046.75;;;16.10;46.91
22481;BME280;11407;56.964;-2.212;2022-10-16T03:51:56;99051.44;;;16.08;46.76
22481;BME280;11407;56.964;-2.212;2022-10-16T03:54:22;99061.94;;;15.95;46.79
22481;BME280;11407;56.964;-2.212;2022-10-16T03:56:47;99072.72;;;15.87;46.96
22481;BME280;11407;56.964;-2.212;2022-10-16T03:59:13;99071.38;;;15.76;46.34
22481;BME280;11407;56.964;-2.212;2022-10-16T04:01:38;99086.00;;;15.66;47.18
22481;BME280;11407;56.964;-2.212;2022-10-16T04:04:04;99099.94;;;15.53;47.25
22481;BME280;11407;56.964;-2.212;2022-10-16T04:06:29;99107.00;;;15.46;47.45
22481;BME280;11407;56.964;-2.212;2022-10-16T04:08:55;99113.78;;;15.49;47.20
22481;BME280;11407;56.964;-2.212;2022-10-16T04:11:21;99120.44;;;15.45;47.28
22481;BME280;11407;56.964;-2.212;2022-10-16T04:13:46;99119.94;;;15.35;47.05
22481;BME280;11407;56.964;-2.212;2022-10-16T04:16:12;99127.28;;;15.33;47.46
22481;BME280;11407;56.964;-2.212;2022-10-16T04:18:37;99130.28;;;15.30;47.18
22481;BME280;11407;56.964;-2.212;2022-10-16T04:21:07;99117.19;;;15.29;47.18
22481;BME280;11407;56.964;-2.212;2022-10-16T04:23:32;99129.53;;;15.22;47.99
22481;BME280;11407;56.964;-2.212;2022-10-16T04:25:58;99135.97;;;15.27;47.24
22481;BME280;11407;56.964;-2.212;2022-10-16T04:28:24;99132.75;;;15.32;47.42
22481;BME280;11407;56.964;-2.212;2022-10-16T04:30:49;99140.94;;;15.22;47.79
22481;BME280;11407;56.964;-2.212;2022-10-16T04:33:15;99132.53;;;15.19;47.68
22481;BME280;11407;56.964;-2.212;2022-10-16T04:35:40;99122.88;;;15.26;48.18
22481;BME280;11407;56.964;-2.212;2022-10-16T04:38:05;99132.31;;;15.28;48.05
22481;BME280;11407;56.964;-2.212;2022-10-16T04:40:31;99130.00;;;15.25;47.86
22481;BME280;11407;56.964;-2.212;2022-10-16T04:42:58;99138.63;;;15.27;47.72
22481;BME280;11407;56.964;-2.212;2022-10-16T04:45:24;99146.38;;;15.43;47.16
22481;BME280;11407;56.964;-2.212;2022-10-16T04:47:50;99144.47;;;15.37;47.62
22481;BME280;11407;56.964;-2.212;2022-10-16T04:50:15;99150.53;;;15.31;47.28
22481;BME280;11407;56.964;-2.212;2022-10-16T04:52:41;99154.88;;;15.24;47.01
22481;BME280;11407;56.964;-2.212;2022-10-16T04:55:07;99167.78;;;15.13;47.13
22481;BME280;11407;56.964;-2.212;2022-10-16T04:57:32;99164.41;;;15.04;47.07
22481;BME280;11407;56.964;-2.212;2022-10-16T04:59:59;99174.66;;;15.07;47.52
22481;BME280;11407;56.964;-2.212;2022-10-16T05:02:25;99184.25;;;15.08;47.48
22481;BME280;11407;56.964;-2.212;2022-10-16T05:04:51;99179.59;;;15.10;46.94
22481;BME280;11407;56.964;-2.212;2022-10-16T05:07:16;99182.22;;;14.96;46.97
22481;BME280;11407;56.964;-2.212;2022-10-16T05:09:42;99192.09;;;14.87;47.94
22481;BME280;11407;56.964;-2.212;2022-10-16T05:12:07;99192.03;;;14.95;46.99
22481;BME280;11407;56.964;-2.212;2022-10-16T05:14:33;99187.50;;;14.81;47.40
22481;BME280;11407;56.964;-2.212;2022-10-16T05:16:59;99192.94;;;14.88;47.52
22481;BME280;11407;56.964;-2.212;2022-10-16T05:19:25;99192.28;;;14.86;47.72
22481;BME280;11407;56.964;-2.212;2022-10-16T05:21:50;99191.91;;;14.89;46.90
22481;BME280;11407;56.964;-2.212;2022-10-16T05:24:16;99197.69;;;14.92;47.54
22481;BME280;11407;56.964;-2.212;2022-10-16T05:26:41;99208.00;;;14.87;47.16
22481;BME280;11407;56.964;-2.212;2022-10-16T05:29:07;99210.09;;;14.77;47.72
22481;BME280;11407;56.964;-2.212;2022-10-16T05:31:32;99207.63;;;14.76;47.63
22481;BME280;11407;56.964;-2.212;2022-10-16T05:34:01;99228.22;;;14.88;47.97
22481;BME280;11407;56.964;-2.212;2022-10-16T05:36:27;99217.22;;;14.77;47.57
22481;BME280;11407;56.964;-2.212;2022-10-16T05:38:52;99219.78;;;14.70;47.71
22481;BME280;11407;56.964;-2.212;2022-10-16T05:41:18;99237.22;;;14.65;48.36
22481;BME280;11407;56.964;-2.212;2022-10-16T05:43:47;99241.44;;;14.74;48.61
22481;BME280;11407;56.964;-2.212;2022-10-16T05:46:13;99250.41;;;14.73;48.10
22481;BME280;11407;56.964;-2.212;2022-10-16T05:48:39;99245.09;;;14.73;47.86
22481;BME280;11407;56.964;-2.212;2022-10-16T05:51:06;99249.72;;;14.79;48.40
22481;BME280;11407;56.964;-2.212;2022-10-16T05:53:34;99249.44;;;14.88;47.67
22481;BME280;11407;56.964;-2.212;2022-10-16T05:56:00;99260.59;;;14.84;47.76
22481;BME280;11407;56.964;-2.212;2022-10-16T05:58:28;99252.63;;;14.84;48.58
22481;BME280;11407;56.964;-2.212;2022-10-16T06:00:59;99255.59;;;14.89;47.70
22481;BME280;11407;56.964;-2.212;2022-10-16T06:03:25;99263.50;;;14.74;48.69
22481;BME280;11407;56.964;-2.212;2022-10-16T06:05:50;99274.28;;;14.73;48.04
22481;BME280;11407;56.964;-2.212;2022-10-16T06:08:16;99269.97;;;14.72;48.44
22481;BME280;11407;56.964;-2.212;2022-10-16T06:10:42;99267.97;;;14.74;48.45
22481;BME280;11407;56.964;-2.212;2022-10-16T06:13:09;99281.88;;;14.76;48.12
22481;BME280;11407;56.964;-2.212;2022-10-16T06:15:34;99285.06;;;14.71;48.65
22481;BME280;11407;56.964;-2.212;2022-10-16T06:18:00;99303.75;;;14.78;48.61
22481;BME280;11407;56.964;-2.212;2022-10-16T06:20:26;99313.09;;;14.88;47.90
22481;BME280;11407;56.964;-2.212;2022-10-16T06:22:51;99318.28;;;14.82;48.52
22481;BME280;11407;56.964;-2.212;2022-10-16T06:25:17;99318.25;;;14.90;48.16
22481;BME280;11407;56.964;-2.212;2022-10-16T06:27:42;99310.19;;;14.83;47.83
22481;BME280;11407;56.964;-2.212;2022-10-16T06:30:08;99311.44;;;14.87;47.67
22481;BME280;11407;56.964;-2.212;2022-10-16T06:32:33;99323.91;;;14.87;48.17
22481;BME280;11407;56.964;-2.212;2022-10-16T06:34:59;99324.97;;;14.78;48.06
22481;BME280;11407;56.964;-2.212;2022-10-16T06:37:24;99327.28;;;14.81;48.45
22481;BME280;11407;56.964;-2.212;2022-10-16T06:39:50;99320.59;;;14.85;48.51
22481;BME280;11407;56.964;-2.212;2022-10-16T06:42:17;99336.22;;;14.80;48.50
22481;BME280;11407;56.964;-2.212;2022-10-16T06:44:43;99330.56;;;14.83;48.46
22481;BME280;11407;56.964;-2.212;2022-10-16T06:47:08;99339.63;;;14.88;48.72
22481;BME280;11407;56.964;-2.212;2022-10-16T06:49:34;99337.94;;;14.95;48.31
22481;BME280;11407;56.964;-2.212;2022-10-16T06:51:59;99333.56;;;15.02;48.20
22481;BME280;11407;56.964;-2.212;2022-10-16T06:54:25;99332.22;;;15.06;47.95
22481;BME280;11407;56.964;-2.212;2022-10-16T06:56:51;99343.06;;;14.97;48.47
22481;BME280;11407;56.964;-2.212;2022-10-16T06:59:16;99336.56;;;14.99;48.66
22481;BME280;11407;56.964;-2.212;2022-10-16T07:01:42;99347.94;;;15.08;48.15
22481;BME280;11407;56.964;-2.212;2022-10-16T07:04:07;99356.19;;;15.13;48.67
22481;BME280;11407;56.964;-2.212;2022-10-16T07:06:33;99366.97;;;15.11;48.63
22481;BME280;11407;56.964;-2.212;2022-10-16T07:09:01;99370.25;;;15.21;48.46
22481;BME280;11407;56.964;-2.212;2022-10-16T07:11:27;99363.44;;;15.19;48.70
22481;BME280;11407;56.964;-2.212;2022-10-16T07:13:52;99382.16;;;15.25;48.27
22481;BME280;11407;56.964;-2.212;2022-10-16T07:16:20;99402.41;;;15.26;48.65
22481;BME280;11407;56.964;-2.212;2022-10-16T07:18:46;99402.03;;;15.29;48.18
22481;BME280;11407;56.964;-2.212;2022-10-16T07:23:41;99411.81;;;15.29;48.19
22481;BME280;11407;56.964;-2.212;2022-10-16T07:26:07;99423.94;;;15.23;48.19
22481;BME280;11407;56.964;-2.212;2022-10-16T07:28:33;99424.94;;;15.22;47.96
22481;BME280;11407;56.964;-2.212;2022-10-16T07:31:04;99431.91;;;15.23;47.54
22481;BME280;11407;56.964;-2.212;2022-10-16T07:33:30;99437.00;;;15.10;47.56
22481;BME280;11407;56.964;-2.212;2022-10-16T07:35:56;99446.47;;;15.05;47.83
22481;BME280;11407;56.964;-2.212;2022-10-16T07:38:22;99456.59;;;15.01;47.71
22481;BME280;11407;56.964;-2.212;2022-10-16T07:40:47;99458.66;;;14.91;47.98
22481;BME280;11407;56.964;-2.212;2022-10-16T07:43:14;99468.63;;;14.89;48.70
22481;BME280;11407;56.964;-2.212;2022-10-16T07:45:49;99465.09;;;14.97;48.14
22481;BME280;11407;56.964;-2.212;2022-10-16T07:48:16;99456.72;;;14.85;48.49
22481;BME280;11407;56.964;-2.212;2022-10-16T07:50:41;99460.72;;;14.81;47.86
22481;BME280;11407;56.964;-2.212;2022-10-16T07:53:07;99485.25;;;14.83;48.29
22481;BME280;11407;56.964;-2.212;2022-10-16T07:55:33;99499.84;;;14.79;48.73
22481;BME280;11407;56.964;-2.212;2022-10-16T07:57:58;99507.78;;;14.79;48.70
22481;BME280;11407;56.964;-2.212;2022-10-16T08:00:24;99528.63;;;14.90;48.59
22481;BME280;11407;56.964;-2.212;2022-10-16T08:02:49;99532.94;;;14.91;47.95
22481;BME280;11407;56.964;-2.212;2022-10-16T08:05:14;99545.53;;;14.97;48.08
22481;BME280;11407;56.964;-2.212;2022-10-16T08:07:40;99557.28;;;14.95;48.29
22481;BME280;11407;56.964;-2.212;2022-10-16T08:10:06;99561.09;;;15.00;48.13
22481;BME280;11407;56.964;-2.212;2022-10-16T08:12:31;99556.44;;;15.02;48.19
22481;BME280;11407;56.964;-2.212;2022-10-16T08:14:56;99572.34;;;15.10;48.39
22481;BME280;11407;56.964;-2.212;2022-10-16T08:17:22;99577.16;;;15.07;48.03
22481;BME280;11407;56.964;-2.212;2022-10-16T08:19:47;99582.97;;;15.10;47.98
22481;BME280;11407;56.964;-2.212;2022-10-16T08:22:14;99579.91;;;15.21;47.96
22481;BME280;11407;56.964;-2.212;2022-10-16T08:24:39;99586.53;;;15.25;47.85
22481;BME280;11407;56.964;-2.212;2022-10-16T08:27:05;99592.00;;;15.24;47.94
22481;BME280;11407;56.964;-2.212;2022-10-16T08:29:31;99598.00;;;15.26;48.25
22481;BME280;11407;56.964;-2.212;2022-10-16T08:31:56;99606.78;;;15.26;47.95
22481;BME280;11407;56.964;-2.212;2022-10-16T08:34:21;99605.97;;;15.26;48.29
22481;BME280;11407;56.964;-2.212;2022-10-16T08:36:47;99619.38;;;15.24;48.41
22481;BME280;11407;56.964;-2.212;2022-10-16T08:39:12;99618.50;;;15.39;48.19
22481;BME280;11407;56.964;-2.212;2022-10-16T08:44:40;99623.19;;;15.60;48.12
22481;BME280;11407;56.964;-2.212;2022-10-16T08:47:23;99634.78;;;15.67;47.60
22481;BME280;11407;56.964;-2.212;2022-10-16T08:49:59;99629.44;;;15.75;47.53
22481;BME280;11407;56.964;-2.212;2022-10-16T08:52:34;99634.94;;;15.73;47.56
22481;BME280;11407;56.964;-2.212;2022-10-16T08:55:01;99632.81;;;15.61;47.49
22481;BME280;11407;56.964;-2.212;2022-10-16T08:57:27;99633.69;;;15.53;47.87
22481;BME280;11407;56.964;-2.212;2022-10-16T08:59:53;99645.50;;;15.51;48.19
22481;BME280;11407;56.964;-2.212;2022-10-16T09:02:31;99653.94;;;15.54;47.81
22481;BME280;11407;56.964;-2.212;2022-10-16T09:15:53;99718.47;;;15.63;47.46
22481;BME280;11407;56.964;-2.212;2022-10-16T09:23:34;99736.88;;;15.64;47.96
22481;BME280;11407;56.964;-2.212;2022-10-16T09:26:01;99727.63;;;15.60;48.29
22481;BME280;11407;56.964;-2.212;2022-10-16T09:28:27;99740.06;;;15.60;47.81
22481;BME280;11407;56.964;-2.212;2022-10-16T09:30:53;99750.00;;;15.66;48.38
22481;BME280;11407;56.964;-2.212;2022-10-16T09:33:22;99764.88;;;15.83;47.66
22481;BME280;11407;56.964;-2.212;2022-10-16T09:35:51;99764.22;;;15.81;48.08
22481;BME280;11407;56.964;-2.212;2022-10-16T09:38:22;99774.13;;;15.95;48.23
22481;BME280;11407;56.964;-2.212;2022-10-16T09:40:48;99776.09;;;16.01;48.13
22481;BME280;11407;56.964;-2.212;2022-10-16T09:43:34;99787.06;;;16.28;47.96
22481;BME280;11407;56.964;-2.212;2022-10-16T09:48:43;99788.66;;;16.45;47.84
22481;BME280;11407;56.964;-2.212;2022-10-16T09:53:45;99806.63;;;16.65;47.96
22481;BME280;11407;56.964;-2.212;2022-10-16T09:56:23;99809.34;;;16.80;47.50
22481;BME280;11407;56.964;-2.212;2022-10-16T09:58:55;99812.09;;;16.72;47.63
22481;BME280;11407;56.964;-2.212;2022-10-16T10:01:24;99826.63;;;16.84;47.75
22481;BME280;11407;56.964;-2.212;2022-10-16T10:03:56;99837.38;;;17.13;47.05
22481;BME280;11407;56.964;-2.212;2022-10-16T10:06:29;99850.31;;;17.16;47.25
22481;BME280;11407;56.964;-2.212;2022-10-16T10:09:14;99855.88;;;17.28;46.90
22481;BME280;11407;56.964;-2.212;2022-10-16T10:16:44;99863.19;;;17.34;46.99
22481;BME280;11407;56.964;-2.212;2022-10-16T10:19:23;99870.19;;;17.50;46.92
22481;BME280;11407;56.964;-2.212;2022-10-16T10:21:50;99869.91;;;17.59;46.58
22481;BME280;11407;56.964;-2.212;2022-10-16T10:24:18;99880.78;;;17.58;46.87
22481;BME280;11407;56.964;-2.212;2022-10-16T10:27:04;99888.06;;;17.78;46.42
22481;BME280;11407;56.964;-2.212;2022-10-16T10:29:50;99890.94;;;17.91;46.63
22481;BME280;11407;56.964;-2.212;2022-10-16T10:35:12;99898.38;;;18.10;46.29
22481;BME280;11407;56.964;-2.212;2022-10-16T10:37:54;99913.84;;;18.29;45.87
22481;BME280;11407;56.964;-2.212;2022-10-16T10:45:48;99935.94;;;18.37;45.96
22481;BME280;11407;56.964;-2.212;2022-10-16T10:50:54;99950.00;;;18.46;46.06
22481;BME280;11407;56.964;-2.212;2022-10-16T10:53:36;99949.75;;;18.55;46.04
22481;BME280;11407;56.964;-2.212;2022-10-16T11:02:22;99972.16;;;18.75;45.76
22481;BME280;11407;56.964;-2.212;2022-10-16T11:08:10;100002.44;;;18.97;45.55
22481;BME280;11407;56.964;-2.212;2022-10-16T11:11:03;100008.03;;;19.02;45.47
22481;BME280;11407;56.964;-2.212;2022-10-16T11:15:59;100009.94;;;19.22;46.01
22481;BME280;11407;56.964;-2.212;2022-10-16T11:21:09;100032.72;;;19.53;45.81
22481;BME280;11407;56.964;-2.212;2022-10-16T11:24:00;100051.66;;;19.58;45.25
22481;BME280;11407;56.964;-2.212;2022-10-16T11:26:30;100058.44;;;19.75;45.19
22481;BME280;11407;56.964;-2.212;2022-10-16T11:29:00;100058.09;;;19.64;46.02
22481;BME280;11407;56.964;-2.212;2022-10-16T11:31:37;100079.00;;;19.96;45.11
22481;BME280;11407;56.964;-2.212;2022-10-16T11:34:06;100068.63;;;19.86;44.43
22481;BME280;11407;56.964;-2.212;2022-10-16T11:36:46;100084.63;;;20.00;44.79
22481;BME280;11407;56.964;-2.212;2022-10-16T11:41:51;100089.78;;;20.23;44.81
22481;BME280;11407;56.964;-2.212;2022-10-16T11:49:26;100109.75;;;20.48;44.26
22481;BME280;11407;56.964;-2.212;2022-10-16T11:54:39;100133.72;;;20.83;43.03
22481;BME280;11407;56.964;-2.212;2022-10-16T11:57:12;100140.41;;;20.93;43.13
22481;BME280;11407;56.964;-2.212;2022-10-16T12:05:04;100163.00;;;21.18;43.17
22481;BME280;11407;56.964;-2.212;2022-10-16T12:07:36;100174.38;;;21.20;42.85
22481;BME280;11407;56.964;-2.212;2022-10-16T12:10:20;100171.72;;;21.27;40.81
22481;BME280;11407;56.964;-2.212;2022-10-16T12:12:46;100180.63;;;21.27;42.78
22481;BME280;11407;56.964;-2.212;2022-10-16T12:17:48;100190.44;;;21.20;41.97
22481;BME280;11407;56.964;-2.212;2022-10-16T12:22:57;100203.75;;;21.35;39.85
22481;BME280;11407;56.964;-2.212;2022-10-16T12:25:34;100211.94;;;21.27;40.93
22481;BME280;11407;56.964;-2.212;2022-10-16T12:28:04;100220.91;;;21.40;41.48
22481;BME280;11407;56.964;-2.212;2022-10-16T12:30:33;100227.13;;;21.47;40.97
22481;BME280;11407;56.964;-2.212;2022-10-16T12:33:37;100236.41;;;21.45;38.71
22481;BME280;11407;56.964;-2.212;2022-10-16T12:36:13;100223.81;;;21.45;40.49
22481;BME280;11407;56.964;-2.212;2022-10-16T12:38:52;100240.06;;;21.37;39.75
22481;BME280;11407;56.964;-2.212;2022-10-16T12:41:30;100243.69;;;21.23;39.90
22481;BME280;11407;56.964;-2.212;2022-10-16T12:43:56;100240.03;;;21.31;41.10
22481;BME280;11407;56.964;-2.212;2022-10-16T12:46:23;100248.03;;;21.24;40.77
22481;BME280;11407;56.964;-2.212;2022-10-16T12:48:49;100248.13;;;21.10;41.06
22481;BME280;11407;56.964;-2.212;2022-10-16T12:56:51;100264.41;;;21.42;40.03
22481;BME280;11407;56.964;-2.212;2022-10-16T12:59:39;100274.53;;;21.40;40.18
22481;BME280;11407;56.964;-2.212;2022-10-16T13:07:55;100283.22;;;21.76;40.85
22481;BME280;11407;56.964;-2.212;2022-10-16T13:15:40;100306.94;;;22.13;39.85
22481;BME280;11407;56.964;-2.212;2022-10-16T13:26:23;100330.66;;;22.03;38.50
22481;BME280;11407;56.964;-2.212;2022-10-16T13:28:58;100343.50;;;22.14;38.79
22481;BME280;11407;56.964;-2.212;2022-10-16T13:31:25;100342.41;;;22.02;38.78
22481;BME280;11407;56.964;-2.212;2022-10-16T13:33:52;100353.25;;;22.21;39.25
22481;BME280;11407;56.964;-2.212;2022-10-16T13:36:26;100355.69;;;22.16;38.97
22481;BME280;11407;56.964;-2.212;2022-10-16T13:41:42;100375.72;;;22.14;38.98
22481;BME280;11407;56.964;-2.212;2022-10-16T13:44:27;100396.84;;;22.23;37.55
22481;BME280;11407;56.964;-2.212;2022-10-16T13:47:03;100396.44;;;22.20;38.31
22481;BME280;11407;56.964;-2.212;2022-10-16T13:49:28;100397.59;;;22.04;38.82
22481;BME280;11407;56.964;-2.212;2022-10-16T13:51:58;100401.34;;;22.16;38.23
22481;BME280;11407;56.964;-2.212;2022-10-16T13:54:25;100402.69;;;21.99;38.93
22481;BME280;11407;56.964;-2.212;2022-10-16T13:56:51;100408.31;;;21.77;38.89
22481;BME280;11407;56.964;-2.212;2022-10-16T13:59:26;100408.56;;;21.82;38.57
22481;BME280;11407;56.964;-2.212;2022-10-16T14:01:55;100410.97;;;21.98;38.78
22481;BME280;11407;56.964;-2.212;2022-10-16T14:04:23;100411.38;;;22.01;38.52
22481;BME280;11407;56.964;-2.212;2022-10-16T14:06:50;100417.53;;;21.95;38.62
22481;BME280;11407;56.964;-2.212;2022-10-16T14:09:29;100431.19;;;22.00;37.99
22481;BME280;11407;56.964;-2.212;2022-10-16T14:12:07;100433.09;;;22.06;38.00
22481;BME280;11407;56.964;-2.212;2022-10-16T14:14:44;100434.56;;;22.09;38.35
22481;BME280;11407;56.964;-2.212;2022-10-16T14:19:58;100436.84;;;22.12;37.74
22481;BME280;11407;56.964;-2.212;2022-10-16T14:22:40;100447.63;;;21.91;38.56
22481;BME280;11407;56.964;-2.212;2022-10-16T14:27:44;100448.69;;;21.48;38.05
22481;BME280;11407;56.964;-2.212;2022-10-16T14:30:15;100451.09;;;21.58;37.83
22481;BME280;11407;56.964;-2.212;2022-10-16T14:32:56;100444.69;;;21.59;37.48
22481;BME280;11407;56.964;-2.212;2022-10-16T14:35:28;100456.69;;;21.63;38.17
22481;BME280;11407;56.964;-2.212;2022-10-16T14:37:56;100457.03;;;21.74;37.97
22481;BME280;11407;56.964;-2.212;2022-10-16T14:40:34;100459.22;;;21.64;37.87
22481;BME280;11407;56.964;-2.212;2022-10-16T14:43:01;100456.31;;;21.66;37.81
22481;BME280;11407;56.964;-2.212;2022-10-16T14:45:29;100463.34;;;21.67;37.20
22481;BME280;11407;56.964;-2.212;2022-10-16T14:47:57;100459.50;;;21.55;37.73
22481;BME280;11407;56.964;-2.212;2022-10-16T14:50:24;100470.97;;;21.49;38.20
22481;BME280;11407;56.964;-2.212;2022-10-16T14:52:50;100474.19;;;21.59;38.10
22481;BME280;11407;56.964;-2.212;2022-10-16T14:55:15;100481.69;;;21.49;37.89
22481;BME280;11407;56.964;-2.212;2022-10-16T14:57:42;100473.88;;;21.47;37.80
22481;BME280;11407;56.964;-2.212;2022-10-16T15:00:21;100491.34;;;21.58;36.35
22481;BME280;11407;56.964;-2.212;2022-10-16T15:02:48;100486.25;;;21.48;37.74
22481;BME280;11407;56.964;-2.212;2022-10-16T15:05:20;100492.13;;;21.37;38.25
22481;BME280;11407;56.964;-2.212;2022-10-16T15:07:47;100507.19;;;21.38;37.50
22481;BME280;11407;56.964;-2.212;2022-10-16T15:10:15;100502.66;;;21.39;38.09
22481;BME280;11407;56.964;-2.212;2022-10-16T15:12:41;100511.31;;;21.20;38.08